Current Weather

Waukegan Regional Airport

Waukegan Regional Airport, Illinois (KUGN)

Report from: Monday, May 23, 2022 1:55 AM CDT
Current time: Monday, May 23, 2022 2:25 AM CDT

Nearby weather
Weather history
Weather forecast

Temperature5.0°C (41.0°F)
Dew point4.4°C (39.9°F)
Winds Calm
Visibility7 mi. (11.3 km)
Clouds Sky clear
Altimeter30.36 in.Hg (1028 mB)
Relative humidity96 %
Density altitude-1,590 ft. (-485 m)
Sea-level pressure102.8 kPa (1028 mB, 30.37 in.Hg)
Remarks Fully automated report
Automated weather observing station with precipitation discriminator
Flight conditions Visual Meteorological Conditions
Raw dataKUGN 230655Z AUTO 00000KT 7SM CLR 05/04 A3036 RMK AO2 SLP284 T00500044
An error has occurred. This application may no longer respond until reloaded. Reload 🗙